createdAt,value
2017-12-21T04:53:50.705Z,1017.89
2017-12-21T04:54:10.110Z,1017.87
2017-12-21T04:55:08.440Z,1017.91
2017-12-21T04:56:09.025Z,1017.86
2017-12-21T04:57:08.252Z,1017.89
2017-12-21T04:58:08.493Z,1017.92
2017-12-21T04:59:08.632Z,1017.86
2017-12-21T05:00:08.202Z,1017.92
2017-12-21T05:01:08.236Z,1017.87
2017-12-21T05:02:08.284Z,1017.86
2017-12-21T05:03:08.189Z,1017.87
2017-12-21T05:04:08.191Z,1017.87
2017-12-21T05:05:08.219Z,1017.87
2017-12-21T05:06:08.130Z,1017.87
2017-12-21T05:07:08.143Z,1017.90
2017-12-21T05:08:08.117Z,1017.92
2017-12-21T05:09:08.087Z,1017.93
2017-12-21T05:10:08.114Z,1017.89
2017-12-21T05:11:08.553Z,1017.88
2017-12-21T05:12:08.041Z,1017.91
2017-12-21T05:13:08.207Z,1017.89
2017-12-21T05:14:08.067Z,1017.88
2017-12-21T05:15:10.553Z,1017.90
2017-12-21T05:16:08.050Z,1017.88
2017-12-21T05:17:07.965Z,1017.88
2017-12-21T05:18:07.944Z,1017.86
2017-12-21T05:19:07.951Z,1017.91
2017-12-21T05:20:07.951Z,1017.87
2017-12-21T05:21:07.918Z,1017.89
2017-12-21T05:22:07.931Z,1017.90
2017-12-21T05:23:07.893Z,1017.86
2017-12-21T05:24:07.967Z,1017.90
2017-12-21T05:25:07.887Z,1017.90
2017-12-21T05:26:07.847Z,1017.93
2017-12-21T05:27:07.920Z,1017.89
2017-12-21T05:28:07.818Z,1017.86
2017-12-21T05:29:07.870Z,1017.89
2017-12-21T05:30:07.780Z,1017.84
2017-12-21T05:31:07.774Z,1017.91
2017-12-21T05:32:07.760Z,1017.91
2017-12-21T05:33:07.811Z,1017.87
2017-12-21T05:34:07.724Z,1017.89
2017-12-21T05:35:07.740Z,1017.89
2017-12-21T05:36:07.722Z,1017.89
2017-12-21T05:37:07.748Z,1017.91
2017-12-21T05:38:07.678Z,1017.91
2017-12-21T05:39:07.672Z,1017.91
2017-12-21T05:40:07.667Z,1017.90
2017-12-21T05:41:07.640Z,1017.91
2017-12-21T05:42:07.614Z,1017.95
2017-12-21T05:43:07.640Z,1017.94
2017-12-21T05:44:07.592Z,1017.91
2017-12-21T05:45:07.630Z,1017.94
2017-12-21T05:46:07.571Z,1017.93
2017-12-21T05:47:08.549Z,1017.93
2017-12-21T05:48:07.541Z,1017.96
2017-12-21T05:49:07.552Z,1017.92
2017-12-21T05:50:07.507Z,1017.92
2017-12-21T05:51:07.523Z,1017.91
2017-12-21T05:52:07.473Z,1017.96
2017-12-21T05:53:07.454Z,1017.93
2017-12-21T05:54:07.459Z,1017.92
2017-12-21T05:55:07.440Z,1017.89
2017-12-21T05:56:07.559Z,1017.88
2017-12-21T05:57:07.427Z,1017.89
2017-12-21T05:58:07.405Z,1017.92
2017-12-21T05:59:07.390Z,1017.88
2017-12-21T06:00:07.379Z,1017.92
2017-12-21T06:01:07.355Z,1017.92
2017-12-21T06:02:07.570Z,1017.93
2017-12-21T06:03:07.344Z,1017.96
2017-12-21T06:04:07.320Z,1017.93
2017-12-21T06:05:07.286Z,1017.95
2017-12-21T06:06:07.273Z,1017.97
2017-12-21T06:07:07.366Z,1017.99
2017-12-21T06:08:07.271Z,1017.97
2017-12-21T06:09:07.236Z,1017.99
2017-12-21T06:10:07.226Z,1018.00
2017-12-21T06:11:07.204Z,1018.00
2017-12-21T06:12:07.186Z,1017.97
2017-12-21T06:13:07.206Z,1018.02
2017-12-21T06:14:07.176Z,1018.00
2017-12-21T06:15:07.241Z,1018.05
2017-12-21T06:16:07.140Z,1018.03
2017-12-21T06:17:07.161Z,1018.06
2017-12-21T06:18:07.137Z,1018.04
2017-12-21T06:19:07.108Z,1018.01
2017-12-21T06:20:07.102Z,1018.02
2017-12-21T06:21:07.093Z,1018.02
2017-12-21T06:22:07.103Z,1018.01
2017-12-21T06:23:07.553Z,1018.07
2017-12-21T06:24:07.030Z,1018.04
2017-12-21T06:25:07.019Z,1018.04
2017-12-21T06:26:07.003Z,1018.05
2017-12-21T06:27:06.994Z,1018.10
2017-12-21T06:28:07.056Z,1018.03
2017-12-21T06:29:06.987Z,1018.02
2017-12-21T06:30:06.973Z,1018.00
2017-12-21T06:31:06.969Z,1018.08
2017-12-21T06:32:06.952Z,1018.03
2017-12-21T06:33:06.921Z,1018.06
2017-12-21T06:34:06.943Z,1018.07
2017-12-21T06:35:06.892Z,1018.10
2017-12-21T06:36:06.873Z,1018.08
2017-12-21T06:37:06.853Z,1018.11
2017-12-21T06:38:06.949Z,1018.11
2017-12-21T06:39:06.811Z,1018.10
2017-12-21T06:40:06.829Z,1018.12
2017-12-21T06:41:06.798Z,1018.14
2017-12-21T06:42:06.788Z,1018.13
2017-12-21T06:43:06.791Z,1018.14
2017-12-21T06:44:06.860Z,1018.16
2017-12-21T06:45:06.745Z,1018.16
2017-12-21T06:46:06.716Z,1018.13
2017-12-21T06:47:06.708Z,1018.12
2017-12-21T06:48:06.703Z,1018.11
2017-12-21T06:49:06.664Z,1018.15
2017-12-21T06:50:06.672Z,1018.17
2017-12-21T06:51:06.817Z,1018.15
2017-12-21T06:52:07.768Z,1018.16
2017-12-21T06:53:06.704Z,1018.14
2017-12-21T06:54:06.603Z,1018.21
2017-12-21T06:55:06.849Z,1018.19
2017-12-21T07:43:41.706Z,1018.20
2017-12-21T07:44:43.410Z,1018.21
2017-12-21T07:45:41.700Z,1018.21
2017-12-21T07:46:41.366Z,1018.24
2017-12-21T07:47:43.121Z,1018.24
2017-12-21T07:48:41.352Z,1018.24
2017-12-21T07:49:41.339Z,1018.23
2017-12-21T07:50:42.124Z,1018.25
2017-12-21T07:51:41.385Z,1018.24
2017-12-21T07:52:42.174Z,1018.26
2017-12-21T07:53:41.313Z,1018.30
2017-12-21T07:54:41.282Z,1018.32
2017-12-21T07:55:41.257Z,1018.33
2017-12-21T07:56:42.101Z,1018.35
2017-12-21T07:57:41.282Z,1018.36
2017-12-21T07:58:42.134Z,1018.39
2017-12-21T07:59:41.196Z,1018.40
2017-12-21T08:00:41.197Z,1018.39
2017-12-21T08:01:42.127Z,1018.47
2017-12-21T08:02:42.300Z,1018.41
2017-12-21T08:03:41.431Z,1018.43
2017-12-21T08:04:41.137Z,1018.45
2017-12-21T08:05:41.177Z,1018.48
2017-12-21T08:11:03.294Z,1018.50
2017-12-21T08:12:00.198Z,1018.51
2017-12-21T08:13:00.687Z,1018.51
2017-12-21T08:14:01.144Z,1018.43
2017-12-21T08:15:00.382Z,1018.49
2017-12-21T08:18:56.584Z,1018.42
2017-12-21T08:19:56.084Z,1018.41
2017-12-21T08:20:55.876Z,1018.38
2017-12-21T08:21:55.837Z,1018.40
2017-12-21T08:22:55.838Z,1018.44
2017-12-21T08:23:56.520Z,1018.38
2017-12-21T08:24:55.996Z,1018.40
2017-12-21T08:25:57.628Z,1018.40
2017-12-21T08:26:55.875Z,1018.40
2017-12-21T08:27:55.862Z,1018.34
2017-12-21T08:28:55.967Z,1018.34
2017-12-21T08:29:55.892Z,1018.35
2017-12-21T08:30:55.788Z,1018.35
2017-12-21T08:31:55.694Z,1018.36
2017-12-21T08:32:55.695Z,1018.40
2017-12-21T08:33:55.690Z,1018.38
2017-12-21T08:34:56.016Z,1018.38
2017-12-21T08:38:40.777Z,1018.42
2017-12-21T08:39:39.750Z,1018.47
2017-12-21T08:51:30.471Z,1018.35
2017-12-21T08:52:29.270Z,1018.30
2017-12-21T08:53:28.500Z,1018.33
2017-12-21T08:54:29.300Z,1018.32
2017-12-21T08:55:28.437Z,1018.26
2017-12-21T08:56:28.435Z,1018.28
2017-12-21T08:57:28.418Z,1018.28
2017-12-21T08:58:28.402Z,1018.28
2017-12-21T08:59:28.437Z,1018.31
2017-12-21T09:00:28.395Z,1018.32
2017-12-21T09:01:28.505Z,1018.35
2017-12-21T09:02:28.387Z,1018.31
2017-12-21T09:03:28.485Z,1018.29
2017-12-21T09:04:28.671Z,1018.25
2017-12-21T09:05:28.297Z,1018.27
2017-12-21T09:06:28.295Z,1018.24
2017-12-21T09:07:28.391Z,1018.29
2017-12-21T09:10:17.856Z,1018.13
2017-12-21T09:11:17.140Z,1018.14
2017-12-21T09:12:17.141Z,1018.12
2017-12-21T09:13:18.567Z,1018.15
2017-12-21T09:14:18.400Z,1018.18
2017-12-21T09:15:17.120Z,1018.19
2017-12-21T09:25:41.006Z,1018.39
2017-12-21T09:26:13.858Z,1018.45
2017-12-21T09:27:13.833Z,1018.47
2017-12-21T09:28:13.833Z,1018.44
2017-12-21T09:29:13.824Z,1018.38
2017-12-21T09:30:13.817Z,1018.38
2017-12-21T09:31:13.894Z,1018.39
2017-12-21T09:32:14.044Z,1018.42
2017-12-21T09:33:13.893Z,1018.38
2017-12-21T09:34:15.748Z,1018.41
2017-12-21T09:35:13.785Z,1018.43
2017-12-21T09:36:13.724Z,1018.46
2017-12-21T09:37:14.481Z,1018.49
2017-12-21T09:38:13.694Z,1018.51
2017-12-21T09:39:13.719Z,1018.51
2017-12-21T09:40:13.667Z,1018.50
2017-12-21T09:41:14.263Z,1018.51
2017-12-21T09:42:13.646Z,1018.47
2017-12-21T09:43:13.646Z,1018.52
2017-12-21T09:44:13.623Z,1018.57
2017-12-21T09:45:13.634Z,1018.55
2017-12-21T09:46:13.579Z,1018.53
2017-12-21T09:47:13.920Z,1018.57
2017-12-21T09:48:13.543Z,1018.46
2017-12-21T09:49:13.537Z,1018.50
2017-12-21T09:50:14.078Z,1018.52
2017-12-21T09:51:13.884Z,1018.53
2017-12-21T09:52:14.685Z,1018.52
2017-12-21T09:53:13.653Z,1018.55
2017-12-21T09:54:14.258Z,1018.55
2017-12-21T09:55:13.770Z,1018.52
2017-12-21T09:56:13.479Z,1018.52
2017-12-21T09:57:13.434Z,1018.54
2017-12-21T09:58:13.431Z,1018.56
2017-12-21T09:59:14.198Z,1018.56
2017-12-21T10:00:15.405Z,1018.60
2017-12-21T10:01:14.261Z,1018.57
2017-12-21T10:02:13.401Z,1018.61
2017-12-21T10:03:13.369Z,1018.58
2017-12-21T10:04:41.236Z,1018.62
2017-12-21T10:05:14.306Z,1018.60
2017-12-21T10:06:13.329Z,1018.61
2017-12-21T10:07:14.247Z,1018.65
2017-12-21T10:08:30.375Z,1018.65
2017-12-21T10:09:13.423Z,1018.61
2017-12-21T10:10:13.287Z,1018.60
2017-12-21T10:11:13.479Z,1018.58
2017-12-21T10:12:13.389Z,1018.62
2017-12-21T10:13:13.437Z,1018.62
2017-12-21T10:14:14.083Z,1018.62
2017-12-21T10:15:17.396Z,1018.65
2017-12-21T10:16:14.169Z,1018.62
2017-12-21T10:17:13.517Z,1018.62
2017-12-21T10:18:13.226Z,1018.54
2017-12-21T10:35:32.141Z,1018.32
2017-12-21T10:36:32.092Z,1018.35
2017-12-21T10:37:32.097Z,1018.32
2017-12-21T10:38:32.051Z,1018.33
2017-12-21T10:39:32.046Z,1018.35
2017-12-21T10:40:32.034Z,1018.33
2017-12-21T10:41:32.082Z,1018.35
2017-12-21T10:42:32.000Z,1018.35
2017-12-21T10:43:31.988Z,1018.36
2017-12-21T10:44:31.970Z,1018.33
2017-12-21T10:45:31.963Z,1018.31
2017-12-21T10:46:31.933Z,1018.32
2017-12-21T10:47:31.938Z,1018.31
2017-12-21T10:48:31.935Z,1018.31
2017-12-21T10:51:20.879Z,1018.62
2017-12-21T10:52:20.770Z,1018.66
2017-12-21T10:53:20.752Z,1018.64
2017-12-21T10:54:20.736Z,1018.63
2017-12-21T10:55:20.704Z,1018.55
2017-12-21T10:56:20.709Z,1018.50
2017-12-21T10:57:20.686Z,1018.59
2017-12-21T10:58:20.692Z,1018.55
2017-12-21T10:59:20.640Z,1018.52
2017-12-21T11:00:20.625Z,1018.42
2017-12-21T11:01:20.628Z,1018.46
2017-12-21T11:02:20.806Z,1018.47
2017-12-21T11:03:20.616Z,1018.50
2017-12-21T11:04:20.598Z,1018.46
2017-12-21T11:05:20.561Z,1018.49
2017-12-21T11:06:20.574Z,1018.48
2017-12-21T11:07:20.557Z,1018.58
2017-12-21T11:08:20.912Z,1018.55
2017-12-21T11:09:20.534Z,1018.56
2017-12-21T11:10:20.513Z,1018.57
2017-12-21T11:11:20.500Z,1018.55
2017-12-21T11:12:20.497Z,1018.59
2017-12-21T11:13:20.474Z,1018.57
2017-12-21T11:14:20.488Z,1018.56
2017-12-21T11:15:20.447Z,1018.58
2017-12-21T11:16:20.432Z,1018.55
2017-12-21T11:17:20.461Z,1018.53
2017-12-21T11:18:20.394Z,1018.52
2017-12-21T11:19:20.418Z,1018.55
2017-12-21T11:20:20.360Z,1018.59
2017-12-21T11:21:20.358Z,1018.49
2017-12-21T11:22:20.409Z,1018.54
2017-12-21T11:23:20.327Z,1018.53
2017-12-21T11:24:20.315Z,1018.53
2017-12-21T11:25:20.298Z,1018.56
2017-12-21T11:26:20.276Z,1018.50
2017-12-21T11:27:20.256Z,1018.52
2017-12-21T11:28:20.278Z,1018.51
2017-12-21T11:29:20.247Z,1018.51
2017-12-21T11:30:20.197Z,1018.44
2017-12-21T11:31:20.201Z,1018.41
2017-12-21T11:32:20.198Z,1018.48
2017-12-21T11:33:20.184Z,1018.47
2017-12-21T11:34:20.166Z,1018.47
2017-12-21T11:35:20.284Z,1018.48
2017-12-21T11:36:20.129Z,1018.43
2017-12-21T11:37:20.107Z,1018.44
2017-12-21T11:38:20.086Z,1018.42
2017-12-21T11:39:20.080Z,1018.40
2017-12-21T11:40:20.069Z,1018.36
2017-12-21T11:41:20.058Z,1018.29
2017-12-21T11:42:20.034Z,1018.32
2017-12-21T11:43:20.018Z,1018.32
2017-12-21T11:44:19.991Z,1018.32
2017-12-21T11:45:19.981Z,1018.31
2017-12-21T11:46:20.012Z,1018.33
2017-12-21T11:47:20.027Z,1018.34
2017-12-21T11:48:19.947Z,1018.35
2017-12-21T11:49:19.927Z,1018.38
2017-12-21T11:50:19.908Z,1018.36
2017-12-21T11:51:19.913Z,1018.35
2017-12-21T11:52:19.868Z,1018.37
2017-12-21T11:53:19.907Z,1018.34
2017-12-21T11:54:19.851Z,1018.34
2017-12-21T11:55:19.833Z,1018.35
2017-12-21T11:56:19.818Z,1018.35
2017-12-21T11:57:19.865Z,1018.37
2017-12-21T11:58:19.800Z,1018.35
2017-12-21T11:59:19.781Z,1018.35
2017-12-21T12:00:19.763Z,1018.31
2017-12-21T12:01:19.741Z,1018.29
2017-12-21T12:02:19.717Z,1018.29
2017-12-21T12:03:19.728Z,1018.25
2017-12-21T12:04:19.774Z,1018.23
2017-12-21T12:05:19.685Z,1018.25
2017-12-21T12:06:19.668Z,1018.27
2017-12-21T12:07:19.652Z,1018.24
2017-12-21T12:08:19.640Z,1018.26
2017-12-21T12:09:19.622Z,1018.22
2017-12-21T12:10:19.650Z,1018.19
2017-12-21T12:11:19.596Z,1018.24
2017-12-21T12:12:19.563Z,1018.24
2017-12-21T12:13:19.558Z,1018.25
2017-12-21T12:14:19.767Z,1018.21
2017-12-21T12:15:19.521Z,1018.18
2017-12-21T12:16:19.518Z,1018.22
2017-12-21T12:17:19.498Z,1018.16
2017-12-21T12:18:19.479Z,1018.19
2017-12-21T12:19:19.461Z,1018.15
2017-12-21T12:20:19.502Z,1018.20
2017-12-21T12:21:19.500Z,1018.22
2017-12-21T12:22:19.406Z,1018.17
2017-12-21T12:23:19.404Z,1018.19
2017-12-21T12:24:19.489Z,1018.19
2017-12-21T12:25:19.470Z,1018.16
2017-12-21T12:26:19.364Z,1018.11
2017-12-21T12:27:19.367Z,1018.15
2017-12-21T12:28:19.321Z,1018.15
2017-12-21T12:29:19.368Z,1018.15
2017-12-21T12:30:19.292Z,1018.17
2017-12-21T12:31:19.259Z,1018.15
2017-12-21T12:32:19.250Z,1018.19
2017-12-21T12:33:19.243Z,1018.16
2017-12-21T12:34:19.248Z,1018.17
2017-12-21T12:35:19.209Z,1018.18
2017-12-21T12:36:19.199Z,1018.19
2017-12-21T12:37:19.195Z,1018.21
2017-12-21T12:38:19.178Z,1018.20
2017-12-21T12:39:19.231Z,1018.20
2017-12-21T12:40:19.157Z,1018.17
2017-12-21T12:41:19.123Z,1018.18
2017-12-21T12:42:19.097Z,1018.20
2017-12-21T12:43:19.080Z,1018.14
2017-12-21T12:44:19.083Z,1018.20
2017-12-21T12:45:19.064Z,1018.19
2017-12-21T12:46:19.052Z,1018.17
2017-12-21T12:47:19.041Z,1018.17
2017-12-21T12:48:19.007Z,1018.16
2017-12-21T12:49:19.003Z,1018.14
2017-12-21T12:50:19.054Z,1018.18
2017-12-21T12:51:18.965Z,1018.16
2017-12-21T12:52:18.943Z,1018.19
2017-12-21T12:53:18.936Z,1018.17
2017-12-21T12:54:18.937Z,1018.19
2017-12-21T12:55:18.908Z,1018.20
2017-12-21T12:56:18.946Z,1018.18
2017-12-21T12:57:18.887Z,1018.20
2017-12-21T12:58:18.849Z,1018.18
2017-12-21T12:59:18.836Z,1018.23
2017-12-21T13:00:18.856Z,1018.21
2017-12-21T13:01:18.821Z,1018.15
2017-12-21T13:02:18.881Z,1018.13
2017-12-21T13:03:18.786Z,1018.13
2017-12-21T13:04:18.777Z,1018.13
2017-12-21T13:05:18.784Z,1018.14
2017-12-21T13:06:18.746Z,1018.12
2017-12-21T13:07:18.738Z,1018.14
2017-12-21T13:08:18.766Z,1018.08
2017-12-21T13:09:18.715Z,1018.08
2017-12-21T13:10:18.693Z,1018.07
2017-12-21T13:11:18.667Z,1018.06
2017-12-21T13:12:18.652Z,1018.01
2017-12-21T13:13:18.626Z,1018.05
2017-12-21T13:14:18.628Z,1018.00
2017-12-21T13:15:18.612Z,1018.00
2017-12-21T13:16:18.608Z,1018.05
2017-12-21T13:17:18.575Z,1018.04
2017-12-21T13:18:18.579Z,1018.05
2017-12-21T13:19:18.557Z,1018.04
2017-12-21T13:20:18.825Z,1018.05
2017-12-21T13:21:18.516Z,1018.05
2017-12-21T13:22:18.507Z,1018.06
2017-12-21T13:23:18.497Z,1018.05
2017-12-21T13:24:18.483Z,1018.05
2017-12-21T13:25:18.454Z,1018.02
2017-12-21T13:26:18.811Z,1018.02
2017-12-21T13:27:18.442Z,1017.98
2017-12-21T13:28:18.421Z,1018.00
2017-12-21T13:29:18.393Z,1018.06
2017-12-21T13:30:18.380Z,1018.05
2017-12-21T13:31:18.364Z,1018.08
2017-12-21T13:32:18.354Z,1018.11
2017-12-21T13:33:18.355Z,1018.12
2017-12-21T13:34:24.159Z,1018.15
2017-12-21T13:35:18.313Z,1018.11
2017-12-21T13:36:18.300Z,1018.10
2017-12-21T13:37:18.333Z,1018.06
2017-12-21T13:38:18.259Z,1018.04
2017-12-21T13:39:18.252Z,1018.03
2017-12-21T13:40:18.234Z,1018.03
2017-12-21T13:41:18.225Z,1018.04
2017-12-21T13:42:18.204Z,1018.07
2017-12-21T13:43:18.221Z,1018.09
2017-12-21T13:44:18.159Z,1018.07
2017-12-21T13:45:18.156Z,1018.02
2017-12-21T13:46:18.139Z,1018.04
2017-12-21T13:47:18.197Z,1018.11
2017-12-21T13:48:18.140Z,1018.14
2017-12-21T13:49:18.093Z,1018.13
2017-12-21T13:50:18.075Z,1018.14
2017-12-21T13:51:18.060Z,1018.15
2017-12-21T13:52:18.088Z,1018.16
2017-12-21T13:53:18.073Z,1018.15
2017-12-21T13:54:18.003Z,1018.11
2017-12-21T13:55:18.013Z,1018.13
2017-12-21T13:56:17.973Z,1018.13
2017-12-21T13:57:17.978Z,1018.17
2017-12-21T13:58:17.972Z,1018.15
2017-12-21T13:59:17.957Z,1018.19
2017-12-21T14:00:17.937Z,1018.18
2017-12-21T14:01:17.912Z,1018.16
2017-12-21T14:02:17.908Z,1018.17
2017-12-21T14:03:17.904Z,1018.16
2017-12-21T14:04:17.879Z,1018.15
2017-12-21T14:05:17.858Z,1018.19
2017-12-21T14:06:17.820Z,1018.18
2017-12-21T14:07:17.839Z,1018.16
2017-12-21T14:08:17.836Z,1018.15
2017-12-21T14:09:17.775Z,1018.11
2017-12-21T14:10:17.829Z,1018.10
2017-12-21T14:11:19.203Z,1018.05
2017-12-21T14:12:17.740Z,1018.06
2017-12-21T14:13:17.750Z,1018.02
2017-12-21T14:14:17.711Z,1018.02
2017-12-21T14:15:17.697Z,1018.07
2017-12-21T14:16:17.715Z,1017.99
2017-12-21T14:17:17.678Z,1018.03
2017-12-21T14:18:17.856Z,1018.01
2017-12-21T14:19:17.691Z,1017.98
2017-12-21T14:20:17.626Z,1017.95
2017-12-21T14:21:17.597Z,1017.93
2017-12-21T14:22:17.591Z,1017.91
2017-12-21T14:23:17.578Z,1017.92
2017-12-21T14:24:17.560Z,1017.96
2017-12-21T14:25:17.600Z,1017.88
2017-12-21T14:26:17.516Z,1017.91
2017-12-21T14:27:18.016Z,1017.93
2017-12-21T14:28:18.152Z,1017.96
2017-12-21T14:29:17.491Z,1017.97
2017-12-21T14:30:17.474Z,1017.93
2017-12-21T14:31:18.404Z,1017.92
2017-12-21T14:32:17.443Z,1017.88
2017-12-21T14:35:07.148Z,1017.88
2017-12-21T14:36:07.101Z,1017.89
2017-12-21T14:37:07.177Z,1017.89
2017-12-21T14:38:07.063Z,1017.92
2017-12-21T14:39:07.063Z,1017.91
2017-12-21T14:40:07.047Z,1017.97
2017-12-21T14:41:07.033Z,1017.97
2017-12-21T14:42:07.016Z,1018.00
2017-12-21T14:43:07.077Z,1018.03
2017-12-21T14:44:06.981Z,1018.05
2017-12-21T14:45:06.970Z,1018.11
2017-12-21T14:46:06.950Z,1018.16
2017-12-21T14:47:06.937Z,1018.16
2017-12-21T14:48:06.922Z,1018.23
2017-12-21T14:49:06.925Z,1018.28
2017-12-21T14:50:06.900Z,1018.32
2017-12-21T14:51:06.872Z,1018.36
2017-12-21T14:52:06.865Z,1018.42
2017-12-21T14:53:06.851Z,1018.36
2017-12-21T14:54:06.849Z,1018.41
2017-12-21T14:55:06.822Z,1018.43
2017-12-21T14:56:06.814Z,1018.44
2017-12-21T14:57:06.788Z,1018.44
2017-12-21T14:58:06.863Z,1018.44
2017-12-21T14:59:06.830Z,1018.42
2017-12-21T15:00:06.736Z,1018.44
2017-12-21T15:01:06.712Z,1018.44
2017-12-21T15:02:06.702Z,1018.37
2017-12-21T15:03:06.683Z,1018.30
2017-12-21T15:04:06.714Z,1018.29
2017-12-21T15:05:06.695Z,1018.32
2017-12-21T15:06:06.665Z,1018.31
2017-12-21T15:07:06.628Z,1018.31
2017-12-21T15:08:06.624Z,1018.34
2017-12-21T15:09:06.668Z,1018.38
2017-12-21T15:10:06.572Z,1018.38
2017-12-21T15:11:06.563Z,1018.37
2017-12-21T15:12:06.575Z,1018.38
2017-12-21T15:13:06.542Z,1018.43
2017-12-21T15:14:06.526Z,1018.44
2017-12-21T15:15:06.579Z,1018.43
2017-12-21T15:16:06.480Z,1018.48
2017-12-21T15:17:06.484Z,1018.49
2017-12-21T15:18:06.449Z,1018.51
2017-12-21T15:19:06.442Z,1018.49
2017-12-21T15:20:06.443Z,1018.49
2017-12-21T15:21:06.414Z,1018.45
2017-12-21T15:22:06.387Z,1018.42
2017-12-21T15:23:06.390Z,1018.44
2017-12-21T15:24:06.390Z,1018.45
2017-12-21T15:25:06.355Z,1018.45
2017-12-21T15:26:06.720Z,1018.46
2017-12-21T15:27:06.313Z,1018.41
2017-12-21T15:28:06.314Z,1018.41
2017-12-21T15:29:06.299Z,1018.41
2017-12-21T15:30:06.300Z,1018.42
2017-12-21T15:31:06.277Z,1018.42
2017-12-21T15:32:06.317Z,1018.41
2017-12-21T15:33:06.238Z,1018.38
2017-12-21T15:34:06.224Z,1018.39
2017-12-21T15:35:06.208Z,1018.43
2017-12-21T15:36:06.183Z,1018.42
2017-12-21T15:37:06.187Z,1018.42
2017-12-21T15:38:06.244Z,1018.44
2017-12-21T15:39:06.136Z,1018.46
2017-12-21T15:40:06.116Z,1018.48
2017-12-21T15:41:06.120Z,1018.53
2017-12-21T15:42:06.100Z,1018.54
2017-12-21T15:43:06.085Z,1018.55
2017-12-21T15:44:06.143Z,1018.56
2017-12-21T15:45:06.062Z,1018.62
2017-12-21T15:46:06.046Z,1018.62
2017-12-21T15:47:06.029Z,1018.64
2017-12-21T15:48:06.014Z,1018.68
2017-12-21T15:49:06.006Z,1018.71
2017-12-21T15:50:06.070Z,1018.72
2017-12-21T15:51:05.960Z,1018.76
2017-12-21T15:52:05.966Z,1018.76
2017-12-21T15:53:05.938Z,1018.78
2017-12-21T15:54:05.913Z,1018.80
2017-12-21T15:55:05.916Z,1018.78
2017-12-21T15:56:05.918Z,1018.75
2017-12-21T15:57:05.873Z,1018.81
2017-12-21T15:58:05.867Z,1018.77
2017-12-21T15:59:05.845Z,1018.80
2017-12-21T16:00:05.842Z,1018.83
2017-12-21T16:01:05.876Z,1018.85
2017-12-21T16:02:05.822Z,1018.90
2017-12-21T16:03:05.796Z,1018.91
2017-12-21T16:04:05.770Z,1018.89
2017-12-21T16:05:05.771Z,1018.91
2017-12-21T16:06:05.748Z,1018.97
2017-12-21T16:07:06.077Z,1018.95
2017-12-21T16:08:05.727Z,1018.97
2017-12-21T16:09:05.696Z,1019.00
2017-12-21T16:10:05.693Z,1019.03
2017-12-21T16:11:05.677Z,1019.03
2017-12-21T16:12:05.670Z,1019.04
2017-12-21T16:13:05.645Z,1018.99
2017-12-21T16:14:05.633Z,1019.00
2017-12-21T16:15:05.612Z,1019.01
2017-12-21T16:16:05.591Z,1019.01
2017-12-21T16:17:05.587Z,1018.99
2017-12-21T16:18:05.579Z,1019.01
2017-12-21T16:19:05.548Z,1019.03
2017-12-21T16:20:05.668Z,1019.00
2017-12-21T16:21:05.508Z,1019.05
2017-12-21T16:22:05.489Z,1019.06
2017-12-21T16:23:05.487Z,1019.00
2017-12-21T16:24:06.177Z,1019.04
2017-12-21T16:25:06.206Z,1019.05
2017-12-21T16:26:05.520Z,1019.08
2017-12-21T16:27:05.434Z,1019.06
2017-12-21T16:28:05.912Z,1019.10
2017-12-21T16:29:05.406Z,1019.10
2017-12-21T16:30:05.364Z,1019.10
2017-12-21T16:31:05.375Z,1019.09
2017-12-21T16:32:05.346Z,1019.08
2017-12-21T16:33:05.314Z,1019.05
2017-12-21T16:34:05.315Z,1019.08
2017-12-21T16:35:05.286Z,1019.09
2017-12-21T16:36:05.672Z,1019.11
2017-12-21T16:37:05.401Z,1019.14
2017-12-21T16:38:05.261Z,1019.16
2017-12-21T16:39:05.246Z,1019.17
2017-12-21T16:40:05.222Z,1019.18
2017-12-21T16:41:05.205Z,1019.16
2017-12-21T16:42:05.250Z,1019.12
2017-12-21T16:43:05.173Z,1019.12
2017-12-21T16:44:05.178Z,1019.10
2017-12-21T16:45:05.139Z,1019.19
2017-12-21T16:46:05.145Z,1019.23
2017-12-21T16:47:05.108Z,1019.25
2017-12-21T16:48:05.101Z,1019.22
2017-12-21T16:49:05.076Z,1019.27
2017-12-21T16:50:05.053Z,1019.34
2017-12-21T16:51:05.063Z,1019.35
2017-12-21T16:52:05.040Z,1019.41
2017-12-21T16:53:05.092Z,1019.37
2017-12-21T16:54:05.018Z,1019.39
2017-12-21T16:55:04.977Z,1019.37
2017-12-21T16:56:04.986Z,1019.45
2017-12-21T16:57:04.970Z,1019.46
2017-12-21T16:58:04.952Z,1019.41
2017-12-21T16:59:05.010Z,1019.39
2017-12-21T17:00:05.234Z,1019.44
2017-12-21T17:01:04.893Z,1019.40
2017-12-21T17:02:04.898Z,1019.38
2017-12-21T17:03:04.867Z,1019.33
2017-12-21T17:04:04.837Z,1019.35
2017-12-21T17:05:04.849Z,1019.30
2017-12-21T17:06:04.801Z,1019.25
2017-12-21T17:07:04.812Z,1019.24
2017-12-21T17:08:04.790Z,1019.25
2017-12-21T17:09:04.787Z,1019.21
2017-12-21T17:10:04.825Z,1019.24
2017-12-21T17:11:04.742Z,1019.20
2017-12-21T17:12:04.714Z,1019.16
2017-12-21T17:13:04.725Z,1019.15
2017-12-21T17:14:04.707Z,1019.17
2017-12-21T17:15:05.425Z,1019.17
2017-12-21T17:16:05.041Z,1019.17
2017-12-21T17:17:04.658Z,1019.19
2017-12-21T17:18:04.638Z,1019.20
2017-12-21T17:19:04.636Z,1019.18
2017-12-21T17:20:04.609Z,1019.18
2017-12-21T17:21:04.607Z,1019.16
2017-12-21T17:22:04.632Z,1019.17
2017-12-21T17:23:04.548Z,1019.15
2017-12-21T17:24:04.541Z,1019.11
2017-12-21T17:25:04.536Z,1019.14
2017-12-21T17:26:04.523Z,1019.13
2017-12-21T17:27:04.493Z,1019.16
2017-12-21T17:28:04.502Z,1019.16
2017-12-21T17:29:04.469Z,1019.15
2017-12-21T17:30:05.066Z,1019.14
2017-12-21T17:31:04.428Z,1019.14
2017-12-21T17:32:04.439Z,1019.15
2017-12-21T17:33:04.416Z,1019.11
2017-12-21T17:34:04.411Z,1019.16
2017-12-21T17:35:04.386Z,1019.19
2017-12-21T17:36:07.098Z,1019.20
2017-12-21T17:37:04.345Z,1019.23
2017-12-21T17:38:04.347Z,1019.21
2017-12-21T17:39:04.347Z,1019.25
2017-12-21T17:40:04.312Z,1019.25
2017-12-21T17:41:04.481Z,1019.27
2017-12-21T17:42:04.281Z,1019.27
2017-12-21T17:43:04.330Z,1019.25
2017-12-21T17:44:04.524Z,1019.25
2017-12-21T17:45:04.228Z,1019.30
2017-12-21T17:46:04.213Z,1019.29
2017-12-21T17:47:04.198Z,1019.25
2017-12-21T17:48:04.237Z,1019.31
2017-12-21T17:49:04.233Z,1019.28
2017-12-21T17:50:04.159Z,1019.31
2017-12-21T17:51:04.144Z,1019.33
2017-12-21T17:52:04.140Z,1019.32
2017-12-21T17:53:04.796Z,1019.33
2017-12-21T17:54:04.087Z,1019.33
2017-12-21T17:55:04.064Z,1019.34
2017-12-21T17:56:04.083Z,1019.30
2017-12-21T17:57:04.059Z,1019.30
2017-12-21T17:58:04.033Z,1019.32
2017-12-21T17:59:03.999Z,1019.30
2017-12-21T18:00:04.036Z,1019.31
2017-12-21T18:01:04.001Z,1019.35
2017-12-21T18:02:03.963Z,1019.37
2017-12-21T18:03:03.952Z,1019.42
2017-12-21T18:04:03.933Z,1019.47
2017-12-21T18:05:03.932Z,1019.50
2017-12-21T18:06:03.974Z,1019.53
2017-12-21T18:07:03.905Z,1019.56
2017-12-21T18:08:03.891Z,1019.59
2017-12-21T18:09:03.862Z,1019.62
2017-12-21T18:10:03.858Z,1019.60
2017-12-21T18:11:03.818Z,1019.57
2017-12-21T18:12:03.838Z,1019.58
2017-12-21T18:13:03.807Z,1019.57
2017-12-21T18:14:03.765Z,1019.55
2017-12-21T18:15:03.773Z,1019.58
2017-12-21T18:16:03.750Z,1019.58
2017-12-21T18:17:03.760Z,1019.59
2017-12-21T18:18:03.765Z,1019.58
2017-12-21T18:19:03.716Z,1019.60
2017-12-21T18:20:03.685Z,1019.63
2017-12-21T18:21:03.686Z,1019.67
2017-12-21T18:22:03.645Z,1019.65
2017-12-21T18:23:03.655Z,1019.72
2017-12-21T18:24:03.701Z,1019.73
2017-12-21T18:25:03.610Z,1019.70
2017-12-21T18:26:03.609Z,1019.73
2017-12-21T18:27:03.584Z,1019.71
2017-12-21T18:28:03.549Z,1019.67
2017-12-21T18:29:03.587Z,1019.65
2017-12-21T18:30:03.537Z,1019.62
2017-12-21T18:31:03.505Z,1019.55
2017-12-21T18:32:03.522Z,1019.55
2017-12-21T18:33:03.515Z,1019.51
2017-12-21T18:34:03.524Z,1019.42
2017-12-21T18:35:03.440Z,1019.36
2017-12-21T18:36:03.434Z,1019.33
2017-12-21T18:37:03.419Z,1019.37